createdAt,value
2022-11-14T00:00:38.216Z,99645.78
2022-11-14T00:03:08.636Z,99650.84
2022-11-14T00:05:43.016Z,99645.66
2022-11-14T00:08:16.841Z,99649.34
2022-11-14T00:10:47.519Z,99645.16
2022-11-14T00:13:15.984Z,99654.72
2022-11-14T00:15:44.227Z,99641.44
2022-11-14T00:18:12.138Z,99631.66
2022-11-14T00:20:41.615Z,99632.78
2022-11-14T00:23:09.465Z,99641.25
2022-11-14T00:25:37.341Z,99631.50
2022-11-14T00:28:05.236Z,99635.06
2022-11-14T00:30:33.109Z,99634.91
2022-11-14T00:33:00.957Z,99632.50
2022-11-14T00:35:28.837Z,99632.94
2022-11-14T00:37:58.076Z,99631.19
2022-11-14T00:40:25.991Z,99633.59
2022-11-14T00:42:53.837Z,99625.47
2022-11-14T00:45:21.799Z,99626.59
2022-11-14T00:47:49.667Z,99626.47
2022-11-14T00:50:18.212Z,99626.44
2022-11-14T00:52:46.049Z,99617.50
2022-11-14T00:55:15.328Z,99619.78
2022-11-14T00:57:43.157Z,99612.13
2022-11-14T01:00:14.368Z,99615.06
2022-11-14T01:02:42.233Z,99606.28
2022-11-14T01:05:10.571Z,99599.63
2022-11-14T01:07:38.476Z,99605.44
2022-11-14T01:10:07.697Z,99603.19
2022-11-14T01:12:36.928Z,99605.66
2022-11-14T01:15:05.907Z,99602.22
2022-11-14T01:17:33.780Z,99595.88
2022-11-14T01:20:01.612Z,99597.19
2022-11-14T01:22:31.028Z,99594.25
2022-11-14T01:24:59.583Z,99599.44
2022-11-14T01:27:27.697Z,99592.94
2022-11-14T01:29:56.982Z,99597.69
2022-11-14T01:32:24.831Z,99590.69
2022-11-14T01:34:52.742Z,99590.22
2022-11-14T01:37:20.586Z,99581.91
2022-11-14T01:39:48.555Z,99575.13
2022-11-14T01:42:21.958Z,99577.03
2022-11-14T01:44:54.231Z,99566.50
2022-11-14T01:47:27.257Z,99560.69
2022-11-14T01:49:57.191Z,99568.00
2022-11-14T01:52:29.078Z,99563.78
2022-11-14T01:55:00.932Z,99556.47
2022-11-14T01:57:38.367Z,99557.28
2022-11-14T02:00:12.984Z,99555.34
2022-11-14T02:02:44.631Z,99543.81
2022-11-14T02:05:16.539Z,99539.44
2022-11-14T02:07:44.393Z,99542.00
2022-11-14T02:10:17.848Z,99533.53
2022-11-14T02:12:46.930Z,99533.75
2022-11-14T02:15:15.955Z,99534.56
2022-11-14T02:17:45.716Z,99532.75
2022-11-14T02:20:22.749Z,99529.97
2022-11-14T02:22:50.619Z,99525.75
2022-11-14T02:25:19.949Z,99528.22
2022-11-14T02:27:48.041Z,99523.16
2022-11-14T02:30:18.855Z,99520.25
2022-11-14T02:35:36.370Z,99518.94
2022-11-14T02:38:04.320Z,99522.19
2022-11-14T02:40:32.257Z,99521.38
2022-11-14T02:43:00.249Z,99523.66
2022-11-14T02:45:28.432Z,99524.31
2022-11-14T02:47:56.338Z,99518.63
2022-11-14T02:50:24.376Z,99523.66
2022-11-14T02:52:54.322Z,99520.22
2022-11-14T02:55:22.296Z,99517.78
2022-11-14T02:57:50.211Z,99515.84
2022-11-14T03:00:19.442Z,99524.63
2022-11-14T03:02:47.332Z,99518.13
2022-11-14T03:05:15.407Z,99517.31
2022-11-14T03:07:43.259Z,99508.66
2022-11-14T03:10:14.042Z,99507.91
2022-11-14T03:12:41.941Z,99504.00
2022-11-14T03:15:11.398Z,99506.56
2022-11-14T03:17:39.528Z,99498.81
2022-11-14T03:20:08.616Z,99491.50
2022-11-14T03:22:36.458Z,99490.88
2022-11-14T03:25:04.892Z,99474.97
2022-11-14T03:27:34.158Z,99476.59
2022-11-14T03:30:02.214Z,99477.22
2022-11-14T03:32:30.244Z,99484.53
2022-11-14T03:34:58.937Z,99479.03
2022-11-14T03:37:26.843Z,99477.56
2022-11-14T03:39:54.996Z,99475.59
2022-11-14T03:42:22.804Z,99480.28
2022-11-14T03:44:52.160Z,99475.44
2022-11-14T03:47:20.149Z,99480.13
2022-11-14T03:49:48.057Z,99480.09
2022-11-14T03:52:15.909Z,99484.94
2022-11-14T03:54:44.111Z,99492.56
2022-11-14T03:57:12.034Z,99491.13
2022-11-14T03:59:40.035Z,99500.56
2022-11-14T04:02:09.336Z,99497.66
2022-11-14T04:04:37.237Z,99494.84
2022-11-14T04:07:05.106Z,99489.19
2022-11-14T04:09:33.022Z,99495.34
2022-11-14T04:12:00.829Z,99483.34
2022-11-14T04:14:28.895Z,99482.19
2022-11-14T04:16:56.732Z,99477.78
2022-11-14T04:19:26.040Z,99481.81
2022-11-14T04:21:53.883Z,99474.22
2022-11-14T04:24:21.766Z,99476.16
2022-11-14T04:26:49.728Z,99472.31
2022-11-14T04:29:17.665Z,99475.91
2022-11-14T04:31:45.669Z,99471.53
2022-11-14T04:34:13.529Z,99466.53
2022-11-14T04:36:43.228Z,99474.47
2022-11-14T04:39:11.281Z,99478.41
2022-11-14T04:41:39.189Z,99476.47
2022-11-14T04:44:07.357Z,99480.66
2022-11-14T04:46:35.217Z,99469.28
2022-11-14T04:49:03.317Z,99469.63
2022-11-14T04:51:31.221Z,99474.16
2022-11-14T04:54:00.524Z,99477.88
2022-11-14T04:56:29.303Z,99473.75
2022-11-14T04:58:57.221Z,99474.88
2022-11-14T05:01:25.190Z,99464.47
2022-11-14T05:03:53.559Z,99457.16
2022-11-14T05:06:21.661Z,99457.69
2022-11-14T05:08:49.611Z,99445.53
2022-11-14T05:11:23.086Z,99442.13
2022-11-14T05:13:53.552Z,99442.63
2022-11-14T05:16:21.485Z,99446.19
2022-11-14T05:18:49.363Z,99461.75
2022-11-14T05:21:17.274Z,99454.22
2022-11-14T05:23:45.306Z,99461.06
2022-11-14T05:26:15.859Z,99468.81
2022-11-14T05:28:45.433Z,99473.34
2022-11-14T05:31:17.898Z,99464.88
2022-11-14T05:33:46.695Z,99471.47
2022-11-14T05:36:16.318Z,99479.28
2022-11-14T05:38:44.674Z,99475.16
2022-11-14T05:41:15.140Z,99474.97
2022-11-14T05:43:45.153Z,99460.66
2022-11-14T05:46:14.841Z,99472.63
2022-11-14T05:48:43.303Z,99465.34
2022-11-14T05:51:13.558Z,99454.72
2022-11-14T05:53:41.923Z,99449.69
2022-11-14T05:56:12.569Z,99444.94
2022-11-14T05:58:40.909Z,99454.50
2022-11-14T06:01:11.447Z,99451.56
2022-11-14T06:03:40.967Z,99454.13
2022-11-14T06:06:11.312Z,99449.19
2022-11-14T06:08:39.729Z,99455.84
2022-11-14T06:11:10.121Z,99461.53
2022-11-14T06:13:38.669Z,99481.69
2022-11-14T06:16:08.867Z,99476.31
2022-11-14T06:18:38.875Z,99481.34
2022-11-14T06:21:08.461Z,99477.97
2022-11-14T06:23:36.341Z,99477.53
2022-11-14T06:26:06.241Z,99482.53
2022-11-14T06:28:34.531Z,99486.84
2022-11-14T06:31:03.848Z,99493.09
2022-11-14T06:33:35.809Z,99483.03
2022-11-14T06:36:07.009Z,99476.03
2022-11-14T06:38:37.358Z,99490.44
2022-11-14T06:41:06.447Z,99486.75
2022-11-14T06:43:34.920Z,99486.50
2022-11-14T06:46:03.692Z,99501.47
2022-11-14T06:48:32.452Z,99509.22
2022-11-14T06:51:02.125Z,99502.84
2022-11-14T06:53:33.077Z,99495.66
2022-11-14T06:56:03.180Z,99494.84
2022-11-14T06:58:32.741Z,99482.44
2022-11-14T07:01:05.026Z,99498.09
2022-11-14T07:03:33.299Z,99488.56
2022-11-14T07:06:01.754Z,99492.25
2022-11-14T07:08:31.524Z,99494.31
2022-11-14T07:11:03.808Z,99488.09
2022-11-14T07:13:32.629Z,99492.97
2022-11-14T07:16:00.898Z,99513.56
2022-11-14T07:18:30.843Z,99508.88
2022-11-14T07:21:00.490Z,99503.44
2022-11-14T07:23:29.162Z,99505.25
2022-11-14T07:26:02.548Z,99497.59
2022-11-14T07:28:30.792Z,99485.09
2022-11-14T07:30:58.850Z,99489.22
2022-11-14T07:33:26.788Z,99489.03
2022-11-14T07:35:55.173Z,99502.97
2022-11-14T07:38:23.071Z,99499.81
2022-11-14T07:40:59.319Z,99493.41
2022-11-14T07:43:29.879Z,99482.91
2022-11-14T07:46:01.245Z,99479.31
2022-11-14T07:48:29.699Z,99483.22
2022-11-14T07:50:59.920Z,99491.13
2022-11-14T07:53:28.230Z,99495.75
2022-11-14T07:55:56.096Z,99497.66
2022-11-14T07:58:24.038Z,99500.91
2022-11-14T08:00:53.272Z,99490.75
2022-11-14T08:03:21.226Z,99490.25
2022-11-14T08:05:49.151Z,99496.78
2022-11-14T08:08:16.998Z,99510.78
2022-11-14T08:10:44.820Z,99510.38
2022-11-14T08:16:10.729Z,99523.94
2022-11-14T08:18:40.530Z,99532.13
2022-11-14T08:21:08.846Z,99545.81
2022-11-14T08:23:36.830Z,99539.53
2022-11-14T08:26:04.855Z,99542.88
2022-11-14T08:28:33.100Z,99538.84
2022-11-14T08:31:03.245Z,99544.56
2022-11-14T08:33:31.830Z,99547.53
2022-11-14T08:36:02.056Z,99546.81
2022-11-14T08:38:30.313Z,99536.34
2022-11-14T08:40:59.710Z,99518.25
2022-11-14T08:43:27.612Z,99518.25
2022-11-14T08:46:01.607Z,99525.78
2022-11-14T08:48:32.310Z,99528.47
2022-11-14T08:51:04.271Z,99520.88
2022-11-14T08:53:32.473Z,99523.94
2022-11-14T08:56:00.412Z,99533.72
2022-11-14T08:58:31.180Z,99546.75
2022-11-14T09:01:03.320Z,99540.59
2022-11-14T09:03:32.628Z,99545.69
2022-11-14T09:06:01.249Z,99541.91
2022-11-14T09:08:29.980Z,99546.59
2022-11-14T09:11:05.349Z,99536.59
2022-11-14T09:13:34.238Z,99556.75
2022-11-14T09:16:02.330Z,99552.28
2022-11-14T09:18:32.847Z,99542.75
2022-11-14T09:21:01.981Z,99530.53
2022-11-14T09:23:30.115Z,99528.34
2022-11-14T09:25:58.489Z,99517.69
2022-11-14T09:28:26.380Z,99513.88
2022-11-14T09:30:54.279Z,99514.16
2022-11-14T09:33:22.092Z,99505.25
2022-11-14T09:35:57.690Z,99508.91
2022-11-14T09:38:25.605Z,99523.00
2022-11-14T09:41:05.531Z,99513.81
2022-11-14T09:43:48.742Z,99511.63
2022-11-14T09:46:22.907Z,99509.63
2022-11-14T09:48:53.149Z,99505.19
2022-11-14T09:51:24.619Z,99514.53
2022-11-14T09:53:57.371Z,99519.22
2022-11-14T09:56:27.357Z,99514.97
2022-11-14T09:58:56.811Z,99526.72
2022-11-14T10:01:38.118Z,99515.84
2022-11-14T10:04:18.328Z,99526.34
2022-11-14T10:06:58.418Z,99526.75
2022-11-14T10:09:51.199Z,99546.31
2022-11-14T10:12:24.655Z,99540.44
2022-11-14T10:15:05.666Z,99532.59
2022-11-14T10:17:50.471Z,99535.84
2022-11-14T10:20:25.201Z,99532.41
2022-11-14T10:23:07.296Z,99525.75
2022-11-14T10:25:44.881Z,99530.38
2022-11-14T10:28:31.141Z,99519.22
2022-11-14T10:31:09.604Z,99518.19
2022-11-14T10:33:49.412Z,99521.97
2022-11-14T10:36:32.250Z,99531.13
2022-11-14T10:39:07.294Z,99526.75
2022-11-14T10:41:56.312Z,99527.97
2022-11-14T10:44:31.829Z,99527.97
2022-11-14T10:47:04.902Z,99528.72
2022-11-14T10:49:36.964Z,99519.38
2022-11-14T10:52:08.649Z,99510.09
2022-11-14T10:54:43.000Z,99509.22
2022-11-14T10:57:17.049Z,99513.25
2022-11-14T10:59:45.321Z,99506.63
2022-11-14T11:02:13.411Z,99504.25
2022-11-14T11:04:42.388Z,99504.00
2022-11-14T11:07:48.898Z,99499.63
2022-11-14T11:10:42.350Z,99494.84
2022-11-14T11:13:15.624Z,99499.84
2022-11-14T11:15:44.061Z,99494.59
2022-11-14T11:18:28.860Z,99487.72
2022-11-14T11:21:05.136Z,99501.38
2022-11-14T11:23:33.107Z,99517.13
2022-11-14T11:26:05.873Z,99503.16
2022-11-14T11:28:35.147Z,99512.34
2022-11-14T11:31:06.246Z,99505.47
2022-11-14T11:33:35.217Z,99497.22
2022-11-14T11:36:06.368Z,99500.22
2022-11-14T11:38:35.237Z,99502.94
2022-11-14T11:41:33.297Z,99492.72
2022-11-14T11:44:13.746Z,99492.78
2022-11-14T11:46:48.020Z,99474.16
2022-11-14T11:49:19.604Z,99471.06
2022-11-14T11:51:48.521Z,99469.78
2022-11-14T11:54:19.545Z,99473.00
2022-11-14T11:56:53.399Z,99466.25
2022-11-14T11:59:29.982Z,99467.53
2022-11-14T12:01:57.961Z,99472.91
2022-11-14T12:04:26.172Z,99466.25
2022-11-14T12:07:03.911Z,99468.78
2022-11-14T12:10:08.911Z,99458.66
2022-11-14T12:12:40.260Z,99462.22
2022-11-14T12:15:19.317Z,99451.97
2022-11-14T12:18:05.706Z,99439.00
2022-11-14T12:20:57.986Z,99441.81
2022-11-14T12:24:07.658Z,99448.06
2022-11-14T12:26:52.312Z,99439.78
2022-11-14T12:29:40.437Z,99433.63
2022-11-14T12:32:13.652Z,99429.41
2022-11-14T12:34:45.562Z,99431.25
2022-11-14T12:37:19.690Z,99432.16
2022-11-14T12:39:58.336Z,99435.16
2022-11-14T12:42:26.412Z,99428.94
2022-11-14T12:44:55.850Z,99428.13
2022-11-14T12:47:25.978Z,99421.94
2022-11-14T12:50:36.394Z,99421.25
2022-11-14T12:53:04.496Z,99425.81
2022-11-14T12:56:19.310Z,99415.84
2022-11-14T12:59:05.665Z,99405.09
2022-11-14T13:01:49.146Z,99411.97
2022-11-14T13:04:25.855Z,99403.91
2022-11-14T13:07:08.288Z,99395.91
2022-11-14T13:09:54.418Z,99397.81
2022-11-14T13:12:58.196Z,99392.69
2022-11-14T13:15:49.738Z,99390.06
2022-11-14T13:18:41.285Z,99390.34
2022-11-14T13:21:44.741Z,99390.06
2022-11-14T13:24:14.447Z,99378.28
2022-11-14T13:26:47.578Z,99380.72
2022-11-14T13:29:52.013Z,99377.06
2022-11-14T13:33:07.754Z,99368.91
2022-11-14T13:35:48.480Z,99365.63
2022-11-14T13:38:50.664Z,99363.94
2022-11-14T13:41:51.077Z,99365.69
2022-11-14T13:45:06.107Z,99357.28
2022-11-14T13:47:52.439Z,99354.00
2022-11-14T13:50:27.048Z,99346.66
2022-11-14T13:52:56.702Z,99347.88
2022-11-14T13:55:32.605Z,99355.69
2022-11-14T13:58:15.824Z,99347.63
2022-11-14T14:00:58.784Z,99342.41
2022-11-14T14:03:39.789Z,99337.91
2022-11-14T14:06:32.017Z,99329.59
2022-11-14T14:09:13.693Z,99324.75
2022-11-14T14:11:56.324Z,99320.19
2022-11-14T14:14:38.573Z,99331.22
2022-11-14T14:17:14.063Z,99332.19
2022-11-14T14:19:53.656Z,99324.31
2022-11-14T14:22:31.024Z,99322.31
2022-11-14T14:25:07.853Z,99324.19
2022-11-14T14:27:42.331Z,99319.91
2022-11-14T14:30:12.873Z,99324.81
2022-11-14T14:32:41.252Z,99316.28
2022-11-14T14:35:23.843Z,99311.84
2022-11-14T14:37:53.567Z,99302.81
2022-11-14T14:40:27.631Z,99306.16
2022-11-14T14:42:57.405Z,99303.06
2022-11-14T14:45:27.987Z,99297.06
2022-11-14T14:48:02.341Z,99296.66
2022-11-14T14:50:41.903Z,99302.53
2022-11-14T14:53:21.767Z,99304.03
2022-11-14T14:55:56.861Z,99302.19
2022-11-14T14:58:27.235Z,99293.59
2022-11-14T15:00:59.338Z,99287.59
2022-11-14T15:03:36.421Z,99293.03
2022-11-14T15:06:06.793Z,99290.75
2022-11-14T15:08:39.769Z,99298.25
2022-11-14T15:11:09.393Z,99294.53
2022-11-14T15:13:38.776Z,99289.59
2022-11-14T15:16:08.353Z,99292.19
2022-11-14T15:18:36.664Z,99287.22
2022-11-14T15:21:09.213Z,99282.31
2022-11-14T15:23:38.982Z,99277.44
2022-11-14T15:26:14.624Z,99285.50
2022-11-14T15:28:42.494Z,99274.47
2022-11-14T15:31:19.694Z,99278.75
2022-11-14T15:34:01.458Z,99288.09
2022-11-14T15:36:29.347Z,99283.34
2022-11-14T15:39:02.228Z,99292.19
2022-11-14T15:41:32.507Z,99290.72
2022-11-14T15:44:03.810Z,99288.81
2022-11-14T15:46:43.670Z,99288.25
2022-11-14T15:49:21.042Z,99283.59
2022-11-14T15:51:51.771Z,99282.25
2022-11-14T15:54:23.543Z,99284.75
2022-11-14T15:56:54.081Z,99286.84
2022-11-14T15:59:23.070Z,99297.31
2022-11-14T16:01:54.095Z,99289.25
2022-11-14T16:04:25.209Z,99285.25
2022-11-14T16:06:53.366Z,99293.72
2022-11-14T16:09:23.001Z,99291.09
2022-11-14T16:11:52.398Z,99301.91
2022-11-14T16:14:20.323Z,99296.91
2022-11-14T16:16:48.238Z,99293.28
2022-11-14T16:19:17.936Z,99295.69
2022-11-14T16:21:45.895Z,99293.50
2022-11-14T16:24:18.160Z,99295.38
2022-11-14T16:26:46.021Z,99292.97
2022-11-14T16:29:15.564Z,99290.13
2022-11-14T16:31:43.634Z,99292.34
2022-11-14T16:34:17.772Z,99293.19
2022-11-14T16:36:46.373Z,99292.63
2022-11-14T16:39:14.458Z,99294.22
2022-11-14T16:41:42.387Z,99295.19
2022-11-14T16:44:17.168Z,99311.16
2022-11-14T16:46:45.570Z,99311.16
2022-11-14T16:49:15.343Z,99305.22
2022-11-14T16:51:48.410Z,99307.50
2022-11-14T16:54:17.537Z,99302.47
2022-11-14T16:56:45.489Z,99304.66
2022-11-14T16:59:13.821Z,99302.25
2022-11-14T17:01:43.777Z,99303.03
2022-11-14T17:04:11.756Z,99308.13
2022-11-14T17:06:39.766Z,99308.13
2022-11-14T17:09:08.020Z,99306.28
2022-11-14T17:11:36.477Z,99305.13
2022-11-14T17:14:04.385Z,99311.66
2022-11-14T17:16:32.223Z,99309.06
